createdAt,value
2019-01-28T00:04:14.865Z,6.40
2019-01-28T00:09:10.263Z,6.40
2019-01-28T00:14:05.313Z,6.40
2019-01-28T00:18:59.775Z,6.40
2019-01-28T00:23:53.962Z,6.40
2019-01-28T00:28:52.150Z,6.50
2019-01-28T00:33:47.169Z,6.50
2019-01-28T00:38:41.382Z,6.50
2019-01-28T00:43:37.440Z,6.50
2019-01-28T00:48:32.619Z,6.40
2019-01-28T00:53:27.683Z,6.40
2019-01-28T00:58:22.662Z,6.40
2019-01-28T01:03:17.446Z,6.40
2019-01-28T01:08:19.538Z,6.40
2019-01-28T01:13:14.938Z,6.40
2019-01-28T01:18:11.031Z,6.40
2019-01-28T01:23:07.723Z,6.30
2019-01-28T01:28:03.513Z,6.30
2019-01-28T01:32:58.073Z,6.30
2019-01-28T01:37:55.184Z,6.20
2019-01-28T01:42:49.297Z,6.30
2019-01-28T01:47:45.097Z,6.20
2019-01-28T01:52:40.069Z,6.30
2019-01-28T01:57:38.895Z,6.30
2019-01-28T02:02:33.723Z,6.30
2019-01-28T02:07:28.092Z,6.40
2019-01-28T02:12:24.221Z,6.40
2019-01-28T02:17:20.989Z,6.30
2019-01-28T02:22:16.476Z,6.40
2019-01-28T02:27:14.254Z,6.30
2019-01-28T02:32:10.629Z,6.40
2019-01-28T02:37:06.754Z,6.50
2019-01-28T02:42:01.704Z,6.60
2019-01-28T02:46:56.506Z,6.80
2019-01-28T02:51:52.233Z,6.80
2019-01-28T02:56:48.771Z,6.70
2019-01-28T03:01:44.591Z,6.60
2019-01-28T03:06:38.687Z,6.40
2019-01-28T03:11:33.398Z,6.20
2019-01-28T03:16:28.634Z,6.00
2019-01-28T03:21:24.858Z,5.80
2019-01-28T03:26:21.637Z,5.70
2019-01-28T03:31:16.742Z,5.50
2019-01-28T03:36:18.040Z,5.50
2019-01-28T03:41:14.978Z,5.50
2019-01-28T03:46:09.843Z,5.40
2019-01-28T03:51:07.305Z,5.40
2019-01-28T03:56:01.926Z,5.40
2019-01-28T04:01:06.088Z,5.40
2019-01-28T04:06:06.158Z,5.40
2019-01-28T04:11:08.554Z,5.30
2019-01-28T04:16:06.791Z,5.40
2019-01-28T04:21:01.871Z,5.30
2019-01-28T04:25:56.535Z,5.40
2019-01-28T04:30:52.017Z,5.30
2019-01-28T04:35:46.952Z,5.30
2019-01-28T04:40:43.116Z,5.30
2019-01-28T04:45:38.269Z,5.30
2019-01-28T04:50:33.837Z,5.30
2019-01-28T04:55:28.692Z,5.20
2019-01-28T05:00:28.424Z,5.20
2019-01-28T05:05:23.466Z,5.20
2019-01-28T05:10:19.872Z,5.30
2019-01-28T05:15:19.480Z,5.20
2019-01-28T05:20:16.029Z,5.10
2019-01-28T05:25:17.116Z,5.00
2019-01-28T05:30:16.951Z,5.00
2019-01-28T05:35:16.770Z,4.80
2019-01-28T05:40:19.738Z,4.70
2019-01-28T05:45:18.761Z,4.50
2019-01-28T05:50:15.839Z,4.50
2019-01-28T05:55:14.750Z,4.40
2019-01-28T06:00:15.511Z,4.40
2019-01-28T06:05:10.693Z,4.50
2019-01-28T06:10:12.955Z,4.50
2019-01-28T06:15:10.672Z,4.60
2019-01-28T06:20:28.222Z,4.70
2019-01-28T06:25:26.333Z,4.70
2019-01-28T06:30:27.392Z,4.90
2019-01-28T06:35:22.679Z,4.90
2019-01-28T06:40:26.178Z,4.90
2019-01-28T06:45:20.822Z,4.80
2019-01-28T06:50:21.356Z,4.50
2019-01-28T06:55:16.370Z,4.40
2019-01-28T07:00:19.435Z,4.20
2019-01-28T07:05:14.459Z,4.20
2019-01-28T07:10:10.387Z,3.90
2019-01-28T07:15:08.012Z,3.90
2019-01-28T07:20:02.885Z,3.90
2019-01-28T07:24:59.902Z,4.20
2019-01-28T07:29:55.317Z,4.70
2019-01-28T07:34:50.456Z,5.00
2019-01-28T07:39:45.398Z,4.90
2019-01-28T07:44:39.881Z,4.90
2019-01-28T07:49:35.811Z,4.90
2019-01-28T07:54:31.404Z,5.10
2019-01-28T07:59:26.156Z,5.10
2019-01-28T08:04:21.362Z,5.30
2019-01-28T08:09:16.887Z,5.70
2019-01-28T08:14:15.861Z,6.20
2019-01-28T08:19:12.299Z,6.40
2019-01-28T08:24:11.087Z,6.60
2019-01-28T08:29:09.197Z,6.70
2019-01-28T08:34:06.497Z,6.80
2019-01-28T08:39:04.895Z,6.70
2019-01-28T08:43:59.104Z,6.80
2019-01-28T08:48:55.513Z,7.00
2019-01-28T08:53:51.844Z,7.30
2019-01-28T08:58:47.309Z,7.60
2019-01-28T09:03:42.277Z,8.60
2019-01-28T09:08:36.743Z,8.90
2019-01-28T09:13:31.082Z,8.90
2019-01-28T09:18:26.508Z,9.00
2019-01-28T09:23:22.117Z,11.80
2019-01-28T09:28:19.231Z,15.20
2019-01-28T09:33:15.338Z,16.80
2019-01-28T09:38:11.579Z,15.60
2019-01-28T09:43:07.077Z,14.50
2019-01-28T09:48:01.907Z,15.20
2019-01-28T09:52:57.523Z,18.20
2019-01-28T09:57:52.079Z,17.90
2019-01-28T10:02:47.666Z,16.30
2019-01-28T10:07:43.015Z,16.00
2019-01-28T10:12:37.954Z,17.60
2019-01-28T10:17:32.947Z,20.90
2019-01-28T10:22:29.704Z,21.10
2019-01-28T10:27:27.715Z,19.30
2019-01-28T10:32:22.924Z,19.10
2019-01-28T10:37:17.281Z,19.30
2019-01-28T10:42:11.972Z,16.40
2019-01-28T10:47:07.959Z,14.00
2019-01-28T10:52:02.738Z,12.30
2019-01-28T10:56:57.140Z,11.10
2019-01-28T11:01:51.236Z,10.80
2019-01-28T11:06:45.457Z,10.60
2019-01-28T11:11:42.342Z,10.30
2019-01-28T11:16:57.718Z,10.30
2019-01-28T11:21:54.383Z,9.70
2019-01-28T11:26:48.531Z,9.10
2019-01-28T11:31:45.508Z,8.80
2019-01-28T11:36:39.734Z,8.70
2019-01-28T11:41:33.784Z,11.30
2019-01-28T11:46:30.482Z,10.40
2019-01-28T11:51:24.743Z,12.20
2019-01-28T11:56:21.099Z,16.60
2019-01-28T12:01:20.025Z,16.00
2019-01-28T12:06:14.470Z,13.00
2019-01-28T12:11:09.357Z,10.70
2019-01-28T12:16:07.401Z,9.70
2019-01-28T12:21:01.256Z,9.50
2019-01-28T12:25:57.454Z,9.30
2019-01-28T12:35:52.301Z,9.20
2019-01-28T12:40:47.155Z,8.70
2019-01-28T12:45:41.312Z,8.50
2019-01-28T12:50:35.485Z,8.50
2019-01-28T12:55:33.998Z,8.60
2019-01-28T13:00:32.721Z,8.80
2019-01-28T13:05:27.849Z,8.60
2019-01-28T13:10:25.826Z,8.30
2019-01-28T13:15:32.186Z,8.30
2019-01-28T13:20:28.380Z,8.60
2019-01-28T13:25:25.865Z,8.30
2019-01-28T13:30:24.275Z,8.00
2019-01-28T13:35:19.304Z,8.10
2019-01-28T13:40:16.881Z,8.10
2019-01-28T13:45:14.248Z,7.80
2019-01-28T13:50:11.433Z,7.60
2019-01-28T13:55:08.235Z,7.70
2019-01-28T14:00:07.510Z,7.60
2019-01-28T14:05:04.456Z,7.60
2019-01-28T14:10:01.259Z,7.50
2019-01-28T14:14:56.952Z,7.50
2019-01-28T14:19:51.451Z,7.50
2019-01-28T14:24:45.950Z,7.40
2019-01-28T14:29:40.782Z,7.40
2019-01-28T14:34:34.962Z,7.20
2019-01-28T14:39:30.212Z,7.10
2019-01-28T14:44:26.140Z,7.10
2019-01-28T14:49:22.325Z,7.00
2019-01-28T14:54:16.144Z,7.00
2019-01-28T15:05:10.732Z,6.90
2019-01-28T15:10:07.851Z,6.80
2019-01-28T15:15:08.430Z,6.70
2019-01-28T15:20:02.898Z,6.70
2019-01-28T15:24:57.942Z,6.70
2019-01-28T15:29:55.114Z,6.70
2019-01-28T15:34:49.843Z,6.70
2019-01-28T15:39:44.288Z,6.60
2019-01-28T15:44:39.275Z,6.60
2019-01-28T15:49:34.065Z,6.50
2019-01-28T15:54:28.746Z,6.50
2019-01-28T15:59:23.503Z,6.50
2019-01-28T16:04:17.487Z,6.40
2019-01-28T16:09:13.170Z,6.30
2019-01-28T16:14:08.205Z,6.30
2019-01-28T16:19:04.217Z,6.30
2019-01-28T16:23:58.750Z,6.20
2019-01-28T16:28:53.686Z,6.20
2019-01-28T16:33:50.492Z,6.20
2019-01-28T16:38:44.710Z,6.20
2019-01-28T16:43:39.326Z,6.10
2019-01-28T16:48:34.464Z,6.10
2019-01-28T16:53:29.559Z,6.10
2019-01-28T16:58:25.891Z,6.10
2019-01-28T17:03:21.164Z,6.10
2019-01-28T17:08:15.341Z,6.20
2019-01-28T17:13:09.823Z,6.10
2019-01-28T17:18:09.364Z,6.10
2019-01-28T17:23:03.992Z,6.10
2019-01-28T17:27:58.559Z,6.10
2019-01-28T17:32:53.170Z,6.10
2019-01-28T17:37:52.230Z,6.10
2019-01-28T17:42:48.259Z,6.10
2019-01-28T17:47:44.601Z,6.10
2019-01-28T17:52:39.343Z,6.10
2019-01-28T17:57:37.574Z,6.10
2019-01-28T18:02:33.301Z,6.10
2019-01-28T18:07:30.943Z,6.10
2019-01-28T18:12:25.286Z,6.10
2019-01-28T18:17:19.892Z,6.10
2019-01-28T18:22:15.085Z,6.10
2019-01-28T18:27:09.746Z,6.20
2019-01-28T18:32:06.338Z,6.20
2019-01-28T18:37:03.995Z,6.10
2019-01-28T18:42:02.313Z,6.10
2019-01-28T18:46:56.199Z,6.00
2019-01-28T18:51:50.871Z,5.90
2019-01-28T18:56:46.421Z,5.70
2019-01-28T19:01:42.094Z,5.60
2019-01-28T19:06:42.458Z,5.50
2019-01-28T19:11:50.585Z,5.30
2019-01-28T19:17:08.217Z,5.10
2019-01-28T19:22:05.103Z,5.10
2019-01-28T19:26:59.625Z,5.10
2019-01-28T19:31:53.892Z,5.00
2019-01-28T19:36:49.348Z,5.00
2019-01-28T19:41:44.437Z,5.10
2019-01-28T19:46:38.559Z,5.20
2019-01-28T19:51:33.012Z,5.10
2019-01-28T19:56:28.960Z,5.20
2019-01-28T20:01:23.161Z,5.10
2019-01-28T20:06:20.593Z,5.10
2019-01-28T20:11:14.861Z,5.20
2019-01-28T20:16:15.569Z,5.20
2019-01-28T20:21:11.402Z,5.10
2019-01-28T20:26:09.531Z,5.10
2019-01-28T20:31:07.849Z,5.00
2019-01-28T20:36:02.582Z,5.10
2019-01-28T20:40:56.475Z,5.20
2019-01-28T20:45:50.788Z,5.30
2019-01-28T20:50:46.034Z,5.30
2019-01-28T20:55:41.812Z,5.40
2019-01-28T21:00:36.937Z,5.50
2019-01-28T21:05:31.841Z,5.50
2019-01-28T21:10:28.971Z,5.50
2019-01-28T21:15:24.227Z,5.50
2019-01-28T21:20:20.763Z,5.50
2019-01-28T21:25:17.376Z,5.50
2019-01-28T21:30:15.465Z,5.50
2019-01-28T21:35:11.619Z,5.60
2019-01-28T21:45:15.674Z,5.50
2019-01-28T21:50:11.617Z,5.50
2019-01-28T21:55:08.053Z,5.40
2019-01-28T22:00:05.461Z,5.30
2019-01-28T22:04:59.822Z,5.30
2019-01-28T22:09:55.157Z,5.30
2019-01-28T22:14:49.241Z,5.30
2019-01-28T22:19:44.183Z,5.30
2019-01-28T22:24:38.965Z,5.20
2019-01-28T22:29:35.140Z,5.20
2019-01-28T22:34:30.177Z,5.20
2019-01-28T22:39:27.159Z,5.10
2019-01-28T22:44:21.537Z,5.10
2019-01-28T22:49:17.908Z,5.10
2019-01-28T22:54:12.645Z,5.10
2019-01-28T22:59:06.847Z,5.10
2019-01-28T23:04:01.973Z,5.10
2019-01-28T23:08:56.275Z,4.90
2019-01-28T23:13:53.883Z,4.90
2019-01-28T23:18:53.001Z,4.90
2019-01-28T23:23:48.599Z,4.90
2019-01-28T23:28:43.741Z,4.90
2019-01-28T23:33:39.229Z,4.90
2019-01-28T23:38:35.986Z,4.90
2019-01-28T23:43:31.919Z,4.80
2019-01-28T23:48:26.913Z,4.60
2019-01-28T23:53:21.105Z,4.60
2019-01-28T23:58:18.408Z,4.50
